Time;durP1;ratioP1;P1;durP2;ratioP2;P2;SDS_P1;SDS_P2;PMS_P1;PMS_P2;Temp;Humidity;BMP_temperature;BMP_pressure;BME280_temperature;BME280_humidity;BME280_pressure;Samples;Min_cycle;Max_cycle;Signal;HPM_P1;HPM_P2
2021/05/30 00:02:22;;;;;;;6.83;5.20;;;;;;;14.25;50.88;98797.41;8353069;28;20338;-84
2021/05/30 00:06:28;;;;;;;5.50;5.00;;;;;;;14.08;51.06;98801.63;8353899;28;20200;-84
2021/05/30 00:10:30;;;;;;;7.37;4.83;;;;;;;14.06;51.11;98792.19;8353330;28;20216;-84
2021/05/30 00:14:33;;;;;;;7.90;6.03;;;;;;;14.04;51.01;98794.03;8353764;28;20479;-83
2021/05/30 00:18:36;;;;;;;10.20;8.03;;;;;;;13.97;51.14;98798.66;8353090;28;20201;-83
2021/05/30 00:22:38;;;;;;;11.37;8.67;;;;;;;14.02;50.86;98794.09;8352893;28;20227;-82
2021/05/30 00:26:41;;;;;;;5.77;5.17;;;;;;;14.00;51.08;98795.09;8352992;28;20417;-84
2021/05/30 00:30:43;;;;;;;5.13;4.40;;;;;;;13.87;51.29;98789.59;8352690;28;20212;-84
2021/05/30 00:34:46;;;;;;;7.77;4.70;;;;;;;13.67;51.60;98790.47;8352495;28;20232;-84
2021/05/30 00:38:49;;;;;;;5.57;4.50;;;;;;;13.60;51.87;98800.28;8353823;28;20208;-83
2021/05/30 00:42:51;;;;;;;5.20;4.37;;;;;;;13.39;52.23;98796.03;8354148;28;20205;-82
2021/05/30 00:46:54;;;;;;;6.73;5.83;;;;;;;13.43;52.10;98802.78;8354733;28;20200;-83
2021/05/30 00:51:00;;;;;;;8.83;5.70;;;;;;;13.34;52.09;98804.00;8352448;28;20208;-83
2021/05/30 00:55:04;;;;;;;9.03;4.77;;;;;;;13.26;52.42;98803.47;8351939;28;20228;-82
2021/05/30 00:59:06;;;;;;;6.77;5.10;;;;;;;13.28;52.21;98802.47;8351892;28;20207;-82
2021/05/30 01:03:08;;;;;;;8.83;7.93;;;;;;;13.25;51.86;98806.97;8335086;28;20229;-82
2021/05/30 01:07:12;;;;;;;6.90;5.47;;;;;;;13.23;52.06;98803.56;8318715;28;20284;-82
2021/05/30 01:11:15;;;;;;;5.00;4.50;;;;;;;13.14;52.07;98796.19;8318614;28;20232;-82
2021/05/30 01:15:18;;;;;;;6.47;4.50;;;;;;;13.09;52.24;98798.97;8318519;28;20229;-82
2021/05/30 01:19:21;;;;;;;4.63;4.23;;;;;;;13.08;52.28;98803.31;8318475;28;20204;-82
2021/05/30 01:23:25;;;;;;;4.83;4.37;;;;;;;13.01;52.70;98794.06;8318246;28;20292;-82
2021/05/30 01:27:27;;;;;;;5.73;4.70;;;;;;;12.90;53.32;98802.31;8318427;28;20205;-81
2021/05/30 01:31:30;;;;;;;5.73;4.77;;;;;;;12.98;53.36;98791.59;8318095;28;20303;-82
2021/05/30 01:35:33;;;;;;;6.30;4.60;;;;;;;12.89;53.26;98789.38;8318104;28;20225;-83
2021/05/30 01:39:36;;;;;;;6.27;4.93;;;;;;;12.79;53.46;98794.09;8317941;28;20201;-82
2021/05/30 01:43:38;;;;;;;9.00;4.90;;;;;;;12.79;53.46;98788.03;8318076;28;20205;-82
2021/05/30 01:47:42;;;;;;;6.03;4.43;;;;;;;12.73;53.32;98796.94;8317932;28;20201;-85
2021/05/30 01:51:45;;;;;;;6.47;5.30;;;;;;;12.82;52.46;98800.94;8318330;28;20201;-83
2021/05/30 01:55:52;;;;;;;12.03;8.53;;;;;;;12.68;52.91;98804.94;8317499;28;20237;-83
2021/05/30 01:59:55;;;;;;;12.03;9.07;;;;;;;12.54;53.10;98812.41;8318251;28;20201;-87
2021/05/30 02:03:58;;;;;;;19.63;13.43;;;;;;;12.62;53.30;98802.56;8350160;28;20562;-83
2021/05/30 02:08:08;;;;;;;11.73;8.93;;;;;;;12.47;53.60;98804.00;8350208;28;20205;-84
2021/05/30 02:12:11;;;;;;;9.57;7.70;;;;;;;12.58;53.40;98811.38;8349893;28;20228;-84
2021/05/30 02:16:14;;;;;;;12.00;9.27;;;;;;;12.60;53.47;98808.72;8349963;28;20204;-83
2021/05/30 02:20:17;;;;;;;8.10;6.07;;;;;;;12.48;53.70;98804.84;8349748;28;20208;-83
2021/05/30 02:24:21;;;;;;;6.90;5.60;;;;;;;12.45;53.43;98800.63;8349858;28;20203;-83
2021/05/30 02:28:24;;;;;;;7.87;5.73;;;;;;;12.26;53.89;98810.00;8349985;28;20200;-83
2021/05/30 02:32:27;;;;;;;6.50;5.80;;;;;;;12.33;53.28;98814.91;8349607;28;20374;-83
2021/05/30 02:36:29;;;;;;;10.53;6.27;;;;;;;12.52;53.22;98806.44;8349593;28;20204;-83
2021/05/30 02:40:32;;;;;;;6.27;5.63;;;;;;;12.56;53.73;98801.97;8349556;28;20211;-83
2021/05/30 02:44:36;;;;;;;6.50;5.27;;;;;;;12.44;54.25;98817.13;8350669;28;20204;-83
2021/05/30 02:48:38;;;;;;;6.73;5.20;;;;;;;12.25;54.82;98823.91;8353787;28;20204;-83
2021/05/30 02:52:41;;;;;;;5.80;5.20;;;;;;;12.41;54.46;98822.41;8348584;28;20204;-84
2021/05/30 02:56:44;;;;;;;5.63;5.07;;;;;;;12.29;54.62;98821.13;8348605;28;20356;-82
2021/05/30 03:00:47;;;;;;;8.07;5.80;;;;;;;12.19;54.95;98821.56;8348330;28;20215;-83
2021/05/30 03:04:50;;;;;;;7.27;5.50;;;;;;;12.29;54.97;98825.50;8347739;28;20235;-83
2021/05/30 03:08:53;;;;;;;6.53;5.70;;;;;;;12.24;55.15;98824.81;8348150;28;20228;-83
2021/05/30 03:12:55;;;;;;;8.10;5.60;;;;;;;12.25;55.22;98822.16;8347825;28;20239;-83
2021/05/30 03:16:58;;;;;;;7.23;6.20;;;;;;;12.24;55.48;98825.69;8347247;28;20276;-83
2021/05/30 03:21:01;;;;;;;7.93;6.90;;;;;;;12.22;55.11;98826.63;8347730;28;20204;-83
2021/05/30 03:25:04;;;;;;;7.60;5.80;;;;;;;12.10;54.91;98820.97;8347943;28;20226;-82
2021/05/30 03:29:06;;;;;;;5.80;5.20;;;;;;;12.07;54.68;98828.91;8348998;28;20219;-83
2021/05/30 03:33:09;;;;;;;6.57;5.40;;;;;;;12.03;54.42;98818.66;8347739;28;20535;-82
2021/05/30 03:37:12;;;;;;;9.67;6.70;;;;;;;12.13;54.50;98825.22;8347182;28;20283;-83
2021/05/30 03:41:16;;;;;;;7.67;6.70;;;;;;;12.14;54.48;98813.91;8347289;28;20207;-83
2021/05/30 03:45:18;;;;;;;12.87;7.50;;;;;;;12.08;54.91;98816.75;8347294;28;20484;-83
2021/05/30 03:49:21;;;;;;;7.03;6.07;;;;;;;12.12;54.81;98811.38;8347438;28;20227;-84
2021/05/30 03:53:24;;;;;;;6.47;5.77;;;;;;;12.18;54.87;98814.66;8346842;28;20247;-83
2021/05/30 03:57:26;;;;;;;6.20;5.60;;;;;;;12.18;54.83;98810.31;8346835;28;20354;-83
2021/05/30 04:01:29;;;;;;;6.87;5.97;;;;;;;12.22;54.91;98806.72;8347176;28;20228;-82
2021/05/30 04:05:32;;;;;;;7.20;6.50;;;;;;;12.35;54.48;98812.25;8347023;28;20224;-83
2021/05/30 04:09:34;;;;;;;7.87;6.47;;;;;;;12.25;55.10;98816.13;8346677;28;20239;-82
2021/05/30 04:13:36;;;;;;;6.87;5.90;;;;;;;12.37;54.72;98812.22;8346607;28;20228;-83
2021/05/30 04:17:40;;;;;;;6.67;5.73;;;;;;;12.39;55.13;98820.78;8347045;28;20223;-83
2021/05/30 04:21:44;;;;;;;7.03;6.13;;;;;;;12.35;55.09;98820.06;8346868;28;20207;-84
2021/05/30 04:25:46;;;;;;;6.50;5.90;;;;;;;12.37;55.03;98815.66;8348098;28;20204;-83
2021/05/30 04:29:48;;;;;;;7.53;6.70;;;;;;;12.49;54.41;98819.56;8352748;28;20204;-82
2021/05/30 04:33:51;;;;;;;9.00;6.33;;;;;;;12.42;54.95;98807.69;8352871;28;20224;-82
2021/05/30 04:37:54;;;;;;;9.77;6.67;;;;;;;12.51;54.74;98807.34;8352734;28;20271;-83
2021/05/30 04:41:56;;;;;;;10.37;7.23;;;;;;;12.56;54.65;98810.59;8352527;28;20211;-83
2021/05/30 04:45:58;;;;;;;9.17;6.27;;;;;;;12.54;55.18;98812.41;8352285;28;20208;-82
2021/05/30 04:50:01;;;;;;;7.77;5.93;;;;;;;12.68;55.03;98817.91;8352324;28;20200;-84
2021/05/30 04:54:05;;;;;;;8.67;6.23;;;;;;;12.66;55.67;98817.13;8352244;28;20243;-83
2021/05/30 04:58:07;;;;;;;6.97;6.37;;;;;;;12.75;55.70;98818.50;8352446;28;20207;-82
2021/05/30 05:02:09;;;;;;;7.47;6.60;;;;;;;12.86;55.89;98823.28;8352403;28;20232;-82
2021/05/30 05:06:12;;;;;;;10.63;6.73;;;;;;;12.89;56.44;98824.03;8351842;28;20254;-82
2021/05/30 05:10:15;;;;;;;7.53;6.80;;;;;;;13.04;56.37;98816.50;8351311;28;20221;-83
2021/05/30 05:14:17;;;;;;;7.73;6.90;;;;;;;13.20;56.35;98816.72;8351773;28;20539;-82
2021/05/30 05:18:21;;;;;;;9.67;8.20;;;;;;;13.27;56.58;98812.97;8351624;28;20204;-84
2021/05/30 05:22:24;;;;;;;7.97;7.20;;;;;;;13.37;56.38;98816.91;8351609;28;20271;-84
2021/05/30 05:26:35;;;;;;;9.13;7.30;;;;;;;13.52;56.30;98822.34;8351833;28;20424;-83
2021/05/30 05:30:38;;;;;;;8.33;7.33;;;;;;;13.65;56.40;98818.31;8351559;28;20205;-82
2021/05/30 05:34:40;;;;;;;9.37;7.13;;;;;;;13.72;56.59;98830.16;8351526;28;20421;-83
2021/05/30 05:38:43;;;;;;;8.67;7.17;;;;;;;13.89;56.35;98832.00;8350713;28;20204;-82
2021/05/30 05:42:46;;;;;;;10.60;7.83;;;;;;;13.89;56.96;98826.81;8351549;28;20208;-81
2021/05/30 05:46:48;;;;;;;9.70;7.80;;;;;;;14.08;56.28;98824.22;8351717;28;20204;-82
2021/05/30 05:50:51;;;;;;;13.23;7.37;;;;;;;14.16;56.30;98829.94;8351119;28;20204;-82
2021/05/30 05:54:53;;;;;;;9.50;7.50;;;;;;;14.49;55.82;98834.53;8351476;28;20239;-82
2021/05/30 05:58:57;;;;;;;12.33;8.43;;;;;;;14.37;55.73;98825.50;8354092;28;20200;-82
2021/05/30 06:02:59;;;;;;;9.97;8.73;;;;;;;14.35;54.19;98836.91;8354993;28;20255;-83
2021/05/30 06:07:02;;;;;;;10.07;8.17;;;;;;;14.70;53.93;98837.91;8350284;28;20208;-81
2021/05/30 06:11:04;;;;;;;10.10;8.63;;;;;;;14.82;53.43;98834.72;8350298;28;20224;-81
2021/05/30 06:15:09;;;;;;;11.23;8.13;;;;;;;14.96;53.54;98835.81;8344312;28;20414;-84
2021/05/30 06:19:11;;;;;;;9.80;7.70;;;;;;;15.15;53.19;98831.38;8332312;28;20308;-84
2021/05/30 06:23:14;;;;;;;11.43;8.17;;;;;;;15.24;52.10;98825.72;8333013;28;20193;-82
2021/05/30 06:27:16;;;;;;;12.57;7.77;;;;;;;15.40;52.16;98835.38;8332938;28;20199;-81
2021/05/30 06:31:20;;;;;;;10.27;7.90;;;;;;;15.58;51.20;98831.00;8332231;28;20204;-81
2021/05/30 06:35:22;;;;;;;11.43;7.80;;;;;;;15.38;51.83;98834.63;8332949;28;20240;-81
2021/05/30 06:39:25;;;;;;;8.57;7.43;;;;;;;15.75;51.73;98835.41;8333988;28;20470;-82
2021/05/30 06:43:28;;;;;;;10.60;7.10;;;;;;;15.92;50.24;98835.38;8331799;28;20402;-82
2021/05/30 06:47:31;;;;;;;8.43;6.90;;;;;;;16.08;50.46;98826.72;8331538;28;20193;-83
2021/05/30 06:51:33;;;;;;;9.23;7.33;;;;;;;15.82;49.67;98832.41;8330689;28;20207;-83
2021/05/30 06:55:36;;;;;;;10.03;7.30;;;;;;;15.97;49.70;98830.75;8331092;28;20231;-82
2021/05/30 06:59:39;;;;;;;8.20;6.40;;;;;;;16.19;48.59;98830.44;8331602;28;20196;-83
2021/05/30 07:03:42;;;;;;;9.57;7.20;;;;;;;16.38;47.87;98832.06;8332464;28;20228;-83
2021/05/30 07:07:44;;;;;;;9.87;7.33;;;;;;;16.26;48.37;98827.50;8329278;28;20388;-83
2021/05/30 07:11:47;;;;;;;8.87;6.30;;;;;;;16.81;47.60;98825.31;8330638;28;20266;-85
2021/05/30 07:15:52;;;;;;;6.63;5.97;;;;;;;16.71;47.52;98816.28;8331201;28;20301;-85
2021/05/30 07:19:57;;;;;;;8.20;6.60;;;;;;;16.93;47.22;98828.19;8327987;28;20282;-82
2021/05/30 07:24:06;;;;;;;7.33;5.87;;;;;;;17.36;45.90;98817.84;8330185;28;20196;-82
2021/05/30 07:28:08;;;;;;;7.90;6.27;;;;;;;17.53;44.87;98824.72;8330452;28;20598;-82
2021/05/30 07:32:10;;;;;;;7.63;6.30;;;;;;;17.10;45.24;98822.00;8331681;28;20193;-83
2021/05/30 07:36:15;;;;;;;7.80;6.60;;;;;;;17.79;46.15;98823.19;8336134;28;20217;-83
2021/05/30 07:40:18;;;;;;;10.77;8.57;;;;;;;17.90;44.50;98814.72;8330448;28;20192;-82
2021/05/30 07:44:20;;;;;;;8.40;6.47;;;;;;;18.42;45.92;98816.69;8330205;28;20203;-83
2021/05/30 07:48:23;;;;;;;8.03;6.10;;;;;;;18.66;43.69;98813.47;8327047;28;20201;-83
2021/05/30 07:52:26;;;;;;;9.00;5.70;;;;;;;18.95;42.79;98806.38;8314743;28;20223;-81
2021/05/30 07:56:28;;;;;;;5.33;4.83;;;;;;;18.95;41.81;98812.44;8314849;28;20368;-82
2021/05/30 08:00:31;;;;;;;4.60;2.50;;;;;;;19.61;42.49;98817.72;8314934;28;20251;-83
2021/05/30 08:04:33;;;;;;;6.17;3.27;;;;;;;19.89;43.71;98806.19;8349493;28;20242;-84
2021/05/30 08:08:36;;;;;;;5.37;3.20;;;;;;;20.29;40.64;98808.63;8353481;28;20293;-82
2021/05/30 08:12:39;;;;;;;5.40;3.80;;;;;;;20.61;37.68;98817.84;8353352;28;20207;-82
2021/05/30 08:16:42;;;;;;;4.57;3.40;;;;;;;20.25;37.78;98812.44;8353555;28;20228;-85
2021/05/30 08:20:45;;;;;;;4.93;3.57;;;;;;;19.71;38.88;98807.44;8353356;28;20271;-81
2021/05/30 08:24:48;;;;;;;6.57;3.90;;;;;;;20.23;38.30;98805.63;8353178;28;20227;-82
2021/05/30 08:28:50;;;;;;;9.23;3.30;;;;;;;20.70;36.24;98799.59;8353398;28;20200;-83
2021/05/30 08:32:53;;;;;;;6.50;3.43;;;;;;;21.11;36.85;98794.88;8353047;28;20206;-84
2021/05/30 08:36:55;;;;;;;8.30;3.60;;;;;;;20.88;35.89;98792.13;8353064;28;20262;-84
2021/05/30 08:41:01;;;;;;;7.43;3.80;;;;;;;19.45;37.41;98793.44;8352597;28;20212;-84
2021/05/30 08:45:04;;;;;;;13.33;3.70;;;;;;;19.68;39.92;98792.69;8353131;28;20495;-81
2021/05/30 08:49:06;;;;;;;10.63;3.33;;;;;;;19.32;38.17;98789.03;8352857;28;20224;-83
2021/05/30 08:53:09;;;;;;;11.10;3.97;;;;;;;20.35;38.08;98782.84;8352818;28;20208;-82
2021/05/30 08:57:13;;;;;;;6.40;3.30;;;;;;;20.57;37.22;98775.09;8352728;28;20270;-81
2021/05/30 09:01:16;;;;;;;7.00;3.60;;;;;;;20.64;36.24;98778.16;8352415;28;20490;-81
2021/05/30 09:05:19;;;;;;;7.57;3.20;;;;;;;21.52;35.51;98780.41;8350268;28;20327;-79
2021/05/30 09:09:21;;;;;;;7.33;3.13;;;;;;;20.89;33.59;98787.72;8351543;28;20230;-82
2021/05/30 09:13:24;;;;;;;5.27;3.00;;;;;;;21.76;33.00;98790.88;8351869;28;20201;-82
2021/05/30 09:17:27;;;;;;;4.20;2.70;;;;;;;21.36;31.56;98785.13;8357181;28;20228;-83
2021/05/30 09:21:30;;;;;;;6.87;2.70;;;;;;;20.31;31.23;98785.72;8351180;28;20205;-82
2021/05/30 09:25:33;;;;;;;4.27;2.73;;;;;;;20.65;29.53;98782.47;8349815;28;20215;-83
2021/05/30 09:29:36;;;;;;;4.47;2.77;;;;;;;21.22;30.46;98778.25;8351070;28;20231;-83
2021/05/30 09:33:38;;;;;;;5.37;2.47;;;;;;;21.23;29.96;98772.88;8351444;28;20204;-83
2021/05/30 09:37:41;;;;;;;4.40;2.50;;;;;;;20.77;30.80;98778.09;8351930;28;20253;-83
2021/05/30 09:41:44;;;;;;;4.00;3.13;;;;;;;20.46;31.67;98778.50;8351813;28;20208;-83
2021/05/30 09:46:06;;;;;;;5.83;3.00;;;;;;;20.08;33.32;98781.25;8351572;28;20227;-83
2021/05/30 09:50:10;;;;;;;4.40;2.80;;;;;;;20.21;33.16;98778.59;8351163;28;20209;-83
2021/05/30 09:54:14;;;;;;;3.80;2.90;;;;;;;20.22;32.28;98767.97;8350972;28;20201;-83
2021/05/30 09:58:18;;;;;;;4.77;2.83;;;;;;;20.37;33.43;98773.94;8350398;28;20201;-83
2021/05/30 10:02:21;;;;;;;3.73;2.70;;;;;;;21.54;30.22;98770.56;8350203;28;20228;-84
2021/05/30 10:06:24;;;;;;;4.57;2.70;;;;;;;21.43;30.01;98778.44;8350749;28;20495;-86
2021/05/30 10:10:28;;;;;;;3.60;2.33;;;;;;;20.95;30.78;98768.00;8350161;28;20221;-83
2021/05/30 10:14:31;;;;;;;8.13;2.67;;;;;;;21.31;29.23;98763.56;8350261;28;20226;-84
2021/05/30 10:18:40;;;;;;;4.03;2.50;;;;;;;21.49;30.68;98767.44;8349985;28;20202;-82
2021/05/30 10:22:43;;;;;;;6.67;2.93;;;;;;;21.27;31.49;98765.59;8349782;28;20214;-83
2021/05/30 10:26:46;;;;;;;4.37;2.60;;;;;;;22.40;28.70;98768.28;8350566;28;20400;-82
2021/05/30 10:30:51;;;;;;;3.93;2.47;;;;;;;23.10;29.23;98761.72;8351582;28;20213;-84
2021/05/30 10:35:11;;;;;;;3.83;2.40;;;;;;;22.10;27.79;98756.56;8352398;28;20236;-83
2021/05/30 10:39:31;;;;;;;4.83;2.40;;;;;;;21.34;29.19;98765.97;8352107;28;20202;-82
2021/05/30 10:43:33;;;;;;;3.50;2.10;;;;;;;22.53;26.82;98752.31;8351014;28;20209;-82
2021/05/30 10:48:17;;;;;;;5.97;2.33;;;;;;;22.48;25.32;98754.47;8351126;28;20317;-83
2021/05/30 10:52:33;;;;;;;3.97;2.00;;;;;;;22.44;25.55;98752.06;8353745;28;20486;-83
2021/05/30 10:56:37;;;;;;;2.73;1.83;;;;;;;22.79;23.41;98753.66;8353007;28;20425;-83
2021/05/30 11:00:40;;;;;;;4.53;2.33;;;;;;;22.23;22.95;98746.69;8352175;28;20201;-82
2021/05/30 11:04:42;;;;;;;3.57;2.17;;;;;;;22.59;22.70;98750.00;8322614;28;20209;-82
2021/05/30 11:08:58;;;;;;;3.50;1.90;;;;;;;22.94;23.14;98741.00;8318683;28;20231;-83
2021/05/30 11:13:02;;;;;;;3.10;1.77;;;;;;;22.78;23.65;98738.75;8317583;28;20201;-83
2021/05/30 11:17:05;;;;;;;4.97;2.00;;;;;;;23.11;23.07;98749.31;8319605;28;20239;-83
2021/05/30 11:21:07;;;;;;;5.23;2.50;;;;;;;23.56;22.37;98756.97;8317551;28;20231;-84
2021/05/30 11:25:11;;;;;;;3.90;2.00;;;;;;;23.12;23.02;98736.00;8318114;28;20212;-84
2021/05/30 11:29:19;;;;;;;4.40;2.13;;;;;;;23.29;22.61;98742.50;8316832;28;20208;-83
2021/05/30 11:33:30;;;;;;;2.67;1.73;;;;;;;22.66;22.44;98737.16;8316900;28;20209;-84
2021/05/30 11:37:32;;;;;;;4.47;2.30;;;;;;;22.61;22.63;98721.66;8318246;28;20239;-83
2021/05/30 11:41:37;;;;;;;6.33;3.77;;;;;;;23.52;23.69;98737.06;8316277;28;20204;-83
2021/05/30 11:45:42;;;;;;;4.30;3.17;;;;;;;23.30;23.56;98723.03;8316533;28;20210;-83
2021/05/30 11:49:45;;;;;;;4.57;2.60;;;;;;;23.83;23.27;98713.28;8316714;28;20593;-84
2021/05/30 11:53:47;;;;;;;4.33;2.17;;;;;;;23.98;22.41;98725.16;8316362;28;20208;-84
2021/05/30 11:57:50;;;;;;;3.20;1.93;;;;;;;23.79;23.58;98725.94;8316953;28;20240;-84
2021/05/30 12:01:52;;;;;;;4.67;2.30;;;;;;;23.88;23.17;98725.16;8323127;28;20233;-83
2021/05/30 12:05:59;;;;;;;3.40;2.00;;;;;;;23.17;23.01;98704.75;8349790;28;20399;-84
2021/05/30 12:10:04;;;;;;;4.37;2.13;;;;;;;22.49;24.02;98706.03;8348749;28;20299;-83
2021/05/30 12:14:07;;;;;;;4.37;2.70;;;;;;;23.13;22.67;98708.63;8350157;28;20216;-83
2021/05/30 12:18:10;;;;;;;8.47;2.40;;;;;;;22.79;23.61;98713.19;8349188;28;20250;-82
2021/05/30 12:22:19;;;;;;;6.77;2.40;;;;;;;23.45;23.17;98709.47;8348990;28;20264;-83
2021/05/30 12:26:23;;;;;;;3.07;1.93;;;;;;;22.94;23.17;98695.25;8349155;28;20281;-84
2021/05/30 12:30:26;;;;;;;5.30;2.03;;;;;;;22.92;23.61;98705.94;8349157;28;20200;-83
2021/05/30 12:34:35;;;;;;;2.87;1.90;;;;;;;23.59;22.44;98690.63;8349650;28;20204;-84
2021/05/30 12:38:37;;;;;;;3.53;1.73;;;;;;;23.99;22.02;98697.75;8349592;28;20257;-85
2021/05/30 12:42:41;;;;;;;4.27;1.73;;;;;;;23.69;21.80;98698.59;8350420;28;20202;-83
2021/05/30 12:46:54;;;;;;;4.77;1.73;;;;;;;24.12;20.74;98695.69;8352381;28;20224;-84
2021/05/30 12:51:00;;;;;;;2.93;1.80;;;;;;;24.22;21.92;98697.50;8356068;28;20190;-84
2021/05/30 12:55:06;;;;;;;4.23;1.90;;;;;;;24.27;22.24;98688.19;8353542;28;20232;-84
2021/05/30 12:59:09;;;;;;;4.33;1.70;;;;;;;24.30;22.17;98672.03;8353842;28;20204;-84
2021/05/30 13:03:12;;;;;;;3.13;1.80;;;;;;;24.53;21.92;98682.38;8352958;28;20404;-84
2021/05/30 13:07:18;;;;;;;5.40;2.00;;;;;;;23.42;22.18;98685.00;8353337;28;20238;-84
2021/05/30 13:11:30;;;;;;;4.10;2.00;;;;;;;23.67;22.18;98682.03;8354558;28;20523;-84
2021/05/30 13:15:45;;;;;;;4.50;2.10;;;;;;;23.91;22.12;98677.28;8353859;28;20230;-84
2021/05/30 13:20:06;;;;;;;3.17;2.03;;;;;;;23.90;22.54;98669.47;8355294;28;20254;-84
2021/05/30 13:24:10;;;;;;;5.00;1.97;;;;;;;23.70;22.59;98679.94;8357306;28;20518;-84
2021/05/30 13:28:17;;;;;;;4.20;1.93;;;;;;;23.21;22.59;98669.16;8351971;28;20530;-85
2021/05/30 13:32:20;;;;;;;4.07;1.90;;;;;;;23.76;22.26;98666.19;8352879;28;20200;-84
2021/05/30 13:36:25;;;;;;;2.87;1.90;;;;;;;23.64;21.56;98643.47;8353777;28;20232;-84
2021/05/30 13:40:38;;;;;;;4.43;2.00;;;;;;;23.53;22.73;98652.34;8350194;28;20211;-84
2021/05/30 13:44:40;;;;;;;3.70;1.80;;;;;;;23.51;22.64;98656.09;8349769;28;20212;-83
2021/05/30 13:48:42;;;;;;;4.27;2.00;;;;;;;23.40;23.36;98639.34;8349566;28;20208;-84
2021/05/30 13:52:46;;;;;;;5.67;2.27;;;;;;;23.05;23.70;98645.03;8349292;28;20204;-84
2021/05/30 13:56:49;;;;;;;3.83;2.07;;;;;;;22.67;23.80;98646.41;8349105;28;20251;-84
2021/05/30 14:00:51;;;;;;;4.07;1.70;;;;;;;22.78;21.84;98637.59;8348377;28;20211;-84
2021/05/30 14:04:54;;;;;;;4.97;2.10;;;;;;;22.88;21.11;98641.13;8317690;28;20215;-84
2021/05/30 14:08:57;;;;;;;3.77;1.80;;;;;;;22.89;22.20;98628.78;8315745;28;20228;-84
2021/05/30 14:12:59;;;;;;;5.13;2.07;;;;;;;22.80;22.35;98631.22;8329112;28;20218;-84
2021/05/30 14:17:01;;;;;;;6.03;2.13;;;;;;;23.32;27.93;98631.28;8350565;28;20228;-84
2021/05/30 14:21:04;;;;;;;5.17;2.13;;;;;;;23.12;21.60;98629.50;8349561;28;20522;-85
2021/05/30 14:25:09;;;;;;;5.13;1.80;;;;;;;22.50;22.48;98629.34;8349122;28;20202;-85
2021/05/30 14:29:12;;;;;;;3.87;1.70;;;;;;;22.59;23.81;98630.38;8348740;28;20203;-86
2021/05/30 14:33:14;;;;;;;3.90;1.57;;;;;;;22.50;22.22;98623.22;8349099;28;20226;-84
2021/05/30 14:37:17;;;;;;;4.63;2.20;;;;;;;22.90;23.21;98630.44;8350333;28;20226;-84
2021/05/30 14:41:21;;;;;;;2.90;1.83;;;;;;;23.21;22.41;98626.91;8348307;28;20200;-84
2021/05/30 14:45:23;;;;;;;4.37;2.00;;;;;;;22.23;24.29;98620.06;8348844;28;20204;-85
2021/05/30 14:49:26;;;;;;;3.13;1.80;;;;;;;21.97;23.82;98622.22;8348570;28;20203;-84
2021/05/30 14:53:28;;;;;;;4.13;1.90;;;;;;;22.30;23.55;98617.81;8348128;28;20354;-86
2021/05/30 14:57:31;;;;;;;3.57;1.80;;;;;;;22.58;22.77;98611.09;8348520;28;20231;-86
2021/05/30 15:01:35;;;;;;;2.40;1.80;;;;;;;22.31;23.36;98614.19;8334916;28;20232;-87
2021/05/30 15:05:46;;;;;;;4.80;1.80;;;;;;;22.26;22.30;98613.75;8325039;28;20202;-88
2021/05/30 15:09:48;;;;;;;2.80;1.47;;;;;;;22.31;23.36;98610.72;8326097;28;20221;-87
2021/05/30 15:13:52;;;;;;;4.03;1.90;;;;;;;22.49;22.90;98614.50;8330963;28;20499;-86
2021/05/30 15:17:55;;;;;;;3.90;1.70;;;;;;;22.31;23.40;98603.63;8335172;28;20405;-88
2021/05/30 15:21:57;;;;;;;7.47;1.77;;;;;;;22.13;23.09;98605.97;8317302;28;20206;-88
2021/05/30 15:26:01;;;;;;;3.17;1.60;;;;;;;21.88;23.10;98607.13;8315331;28;20228;-88
2021/05/30 15:30:05;;;;;;;3.43;1.80;;;;;;;22.19;23.65;98599.34;8319120;28;20215;-88
2021/05/30 15:34:08;;;;;;;4.50;2.17;;;;;;;21.58;23.76;98602.53;8317501;28;20401;-88
2021/05/30 15:38:11;;;;;;;5.20;1.80;;;;;;;21.44;23.16;98601.81;8316962;28;20393;-87
2021/05/30 15:42:13;;;;;;;7.47;2.20;;;;;;;21.75;24.17;98606.44;8323718;28;20210;-88
2021/05/30 15:46:17;;;;;;;4.37;1.60;;;;;;;22.01;23.29;98602.53;8315839;28;20207;-88
2021/05/30 15:50:19;;;;;;;3.30;1.83;;;;;;;21.50;23.87;98603.13;8315380;28;20225;-86
2021/05/30 15:54:22;;;;;;;5.50;1.90;;;;;;;21.62;24.27;98596.88;8315608;28;20202;-87
2021/05/30 15:58:25;;;;;;;3.73;1.60;;;;;;;21.78;24.71;98593.00;8315335;28;20520;-87
2021/05/30 16:02:28;;;;;;;2.60;1.93;;;;;;;21.62;24.17;98591.59;8325866;28;20232;-86
2021/05/30 16:06:30;;;;;;;2.30;1.67;;;;;;;21.35;24.05;98599.03;8348511;28;20233;-88
2021/05/30 16:10:33;;;;;;;4.07;1.80;;;;;;;21.63;24.83;98603.00;8348805;28;20221;-87
2021/05/30 16:14:35;;;;;;;5.00;1.80;;;;;;;21.39;24.73;98598.66;8348685;28;20498;-87
2021/05/30 16:18:40;;;;;;;6.43;2.23;;;;;;;21.53;24.75;98608.13;8351095;28;20240;-87
2021/05/30 16:22:43;;;;;;;3.50;1.70;;;;;;;21.40;24.62;98603.00;8353908;28;20207;-88
2021/05/30 16:26:46;;;;;;;3.87;1.67;;;;;;;21.12;24.23;98600.84;8341867;28;20281;-88
2021/05/30 16:30:49;;;;;;;3.80;1.93;;;;;;;20.71;23.90;98610.94;8337268;28;20198;-83
2021/05/30 16:34:52;;;;;;;7.30;2.07;;;;;;;20.79;24.41;98598.06;8337677;28;20208;-86
2021/05/30 16:38:54;;;;;;;2.40;1.70;;;;;;;21.00;24.95;98606.09;8357705;28;20335;-88
2021/05/30 16:42:57;;;;;;;7.80;1.77;;;;;;;20.49;25.17;98598.56;8353653;28;20247;-86
2021/05/30 16:46:59;;;;;;;3.00;1.67;;;;;;;20.48;25.19;98597.69;8325794;28;20207;-87
2021/05/30 16:51:03;;;;;;;4.27;1.90;;;;;;;19.97;25.75;98594.50;8319696;28;20403;-84
2021/05/30 16:55:07;;;;;;;3.83;1.80;;;;;;;20.02;25.47;98593.22;8319791;28;20204;-91
2021/05/30 16:59:09;;;;;;;4.23;1.67;;;;;;;20.10;26.31;98590.03;8322498;28;20227;-90
2021/05/30 17:03:12;;;;;;;3.77;1.87;;;;;;;20.16;26.08;98591.38;8340452;28;20577;-89
2021/05/30 17:07:15;;;;;;;6.37;1.80;;;;;;;20.01;26.41;98588.94;8353166;28;20204;-89
2021/05/30 17:11:19;;;;;;;3.90;2.27;;;;;;;19.78;26.73;98590.63;8352930;28;20286;-89
2021/05/30 17:15:26;;;;;;;8.50;1.97;;;;;;;19.68;27.49;98593.00;8352451;28;20207;-90
2021/05/30 17:19:28;;;;;;;2.53;1.60;;;;;;;19.59;27.12;98587.56;8352025;28;20240;-91
2021/05/30 17:23:32;;;;;;;3.37;1.97;;;;;;;19.57;26.31;98599.97;8352248;28;20200;-88
2021/05/30 17:27:34;;;;;;;3.70;1.70;;;;;;;19.34;26.99;98589.31;8352102;28;20204;-90
2021/05/30 17:31:37;;;;;;;4.83;1.63;;;;;;;19.32;27.62;98599.09;8353372;28;20521;-90
2021/05/30 17:35:39;;;;;;;2.70;1.67;;;;;;;19.25;28.54;98608.38;8352550;28;20269;-89
2021/05/30 17:39:43;;;;;;;7.47;2.20;;;;;;;19.57;28.58;98602.59;8354932;28;20211;-91
2021/05/30 17:43:46;;;;;;;3.53;1.73;;;;;;;19.65;29.93;98592.41;8355872;28;20212;-91
2021/05/30 17:47:48;;;;;;;10.40;2.53;;;;;;;19.56;30.25;98596.53;8354573;28;20201;-91
2021/05/30 17:51:51;;;;;;;16.33;2.53;;;;;;;19.79;30.91;98591.44;8356039;28;20207;-88
2021/05/30 17:55:55;;;;;;;6.50;2.23;;;;;;;19.82;30.70;98593.84;8356117;28;20211;-93
2021/05/30 17:59:58;;;;;;;7.13;2.33;;;;;;;19.31;28.42;98590.38;8352950;28;20236;-86
2021/05/30 18:04:00;;;;;;;4.13;2.10;;;;;;;19.45;28.33;98593.81;8355297;28;20558;-94
2021/05/30 18:08:13;;;;;;;5.83;2.07;;;;;;;19.51;29.00;98590.75;8354428;28;20206;-91
2021/05/30 18:12:18;;;;;;;3.07;1.93;;;;;;;19.55;31.58;98586.94;8358598;28;20226;-93
2021/05/30 18:16:21;;;;;;;4.67;1.90;;;;;;;19.47;31.08;98591.91;8355074;28;20336;-91
2021/05/30 18:20:24;;;;;;;4.90;1.90;;;;;;;19.37;30.46;98583.03;8359639;28;20200;-92
2021/05/30 18:24:26;;;;;;;4.53;1.97;;;;;;;19.30;31.51;98587.84;8355701;28;20211;-92
2021/05/30 18:28:30;;;;;;;3.20;1.97;;;;;;;19.36;30.41;98581.34;8353020;28;20208;-93
2021/05/30 18:32:32;;;;;;;3.60;2.00;;;;;;;19.13;30.74;98586.41;8352094;28;20204;-88
2021/05/30 18:36:35;;;;;;;5.33;2.07;;;;;;;19.29;31.61;98592.28;8351701;28;20295;-90
2021/05/30 18:40:39;;;;;;;4.70;2.07;;;;;;;19.33;31.67;98585.84;8356133;28;20266;-90
2021/05/30 18:44:43;;;;;;;5.60;2.17;;;;;;;18.92;30.01;98592.22;8353550;28;20212;-89
2021/05/30 18:48:45;;;;;;;3.70;1.90;;;;;;;18.55;31.12;98581.56;8358148;28;20284;-88
2021/05/30 18:52:47;;;;;;;3.33;1.83;;;;;;;18.66;31.14;98587.88;8340769;28;20205;-89
2021/05/30 18:56:50;;;;;;;5.77;2.43;;;;;;;18.64;31.02;98601.09;8345386;28;20220;-89
2021/05/30 19:00:53;;;;;;;2.83;2.10;;;;;;;18.52;31.23;98600.13;8330770;28;20469;-87
2021/05/30 19:04:56;;;;;;;4.23;2.60;;;;;;;18.50;31.88;98604.63;8330144;28;20217;-87